sensor_id;sensor_type;location;lat;lon;timestamp;temperature;humidity
75683;HTU21D;64295;44.772;39.872;2023-01-15T00:01:45;-0.52;59.29
75683;HTU21D;64295;44.772;39.872;2023-01-15T00:04:11;-0.47;59.26
75683;HTU21D;64295;44.772;39.872;2023-01-15T00:06:40;-0.46;59.19
75683;HTU21D;64295;44.772;39.872;2023-01-15T00:09:07;-0.45;59.10
75683;HTU21D;64295;44.772;39.872;2023-01-15T00:11:33;-0.49;59.19
75683;HTU21D;64295;44.772;39.872;2023-01-15T00:13:59;-0.47;59.24
75683;HTU21D;64295;44.772;39.872;2023-01-15T00:16:26;-0.51;59.26
75683;HTU21D;64295;44.772;39.872;2023-01-15T00:18:57;-0.55;59.35
75683;HTU21D;64295;44.772;39.872;2023-01-15T00:21:25;-0.60;59.41
75683;HTU21D;64295;44.772;39.872;2023-01-15T00:23:51;-0.59;59.42
75683;HTU21D;64295;44.772;39.872;2023-01-15T00:26:35;-0.60;59.39
75683;HTU21D;64295;44.772;39.872;2023-01-15T00:29:20;-0.62;59.41
75683;HTU21D;64295;44.772;39.872;2023-01-15T00:31:58;-0.64;59.42
75683;HTU21D;64295;44.772;39.872;2023-01-15T00:34:25;-0.65;59.44
75683;HTU21D;64295;44.772;39.872;2023-01-15T00:36:51;-0.61;59.42
75683;HTU21D;64295;44.772;39.872;2023-01-15T00:39:17;-0.61;59.38
75683;HTU21D;64295;44.772;39.872;2023-01-15T00:41:45;-0.62;59.41
75683;HTU21D;64295;44.772;39.872;2023-01-15T00:44:12;-0.67;59.45
75683;HTU21D;64295;44.772;39.872;2023-01-15T00:46:38;-0.68;59.54
75683;HTU21D;64295;44.772;39.872;2023-01-15T00:49:04;-0.69;59.51
75683;HTU21D;64295;44.772;39.872;2023-01-15T00:51:30;-0.70;59.54
75683;HTU21D;64295;44.772;39.872;2023-01-15T00:53:56;-0.72;59.55
75683;HTU21D;64295;44.772;39.872;2023-01-15T00:56:22;-0.75;59.66
75683;HTU21D;64295;44.772;39.872;2023-01-15T00:58:48;-0.80;59.64
75683;HTU21D;64295;44.772;39.872;2023-01-15T01:01:14;-0.79;59.67
75683;HTU21D;64295;44.772;39.872;2023-01-15T01:03:40;-0.81;59.67
75683;HTU21D;64295;44.772;39.872;2023-01-15T01:06:07;-0.83;59.69
75683;HTU21D;64295;44.772;39.872;2023-01-15T01:08:34;-0.85;59.69
75683;HTU21D;64295;44.772;39.872;2023-01-15T01:11:06;-0.88;59.77
75683;HTU21D;64295;44.772;39.872;2023-01-15T01:13:33;-0.84;59.74
75683;HTU21D;64295;44.772;39.872;2023-01-15T01:15:59;-0.80;59.67
75683;HTU21D;64295;44.772;39.872;2023-01-15T01:18:25;-0.79;59.66
75683;HTU21D;64295;44.772;39.872;2023-01-15T01:20:51;-0.76;59.67
75683;HTU21D;64295;44.772;39.872;2023-01-15T01:23:18;-0.75;59.63
75683;HTU21D;64295;44.772;39.872;2023-01-15T01:25:44;-0.81;59.61
75683;HTU21D;64295;44.772;39.872;2023-01-15T01:28:10;-0.84;59.68
75683;HTU21D;64295;44.772;39.872;2023-01-15T01:30:37;-0.86;59.76
75683;HTU21D;64295;44.772;39.872;2023-01-15T01:33:03;-0.85;59.75
75683;HTU21D;64295;44.772;39.872;2023-01-15T01:35:30;-0.84;59.81
75683;HTU21D;64295;44.772;39.872;2023-01-15T01:37:55;-0.84;59.78
75683;HTU21D;64295;44.772;39.872;2023-01-15T01:40:21;-0.87;59.86
75683;HTU21D;64295;44.772;39.872;2023-01-15T01:42:48;-0.90;59.84
75683;HTU21D;64295;44.772;39.872;2023-01-15T01:45:21;-0.91;59.90
75683;HTU21D;64295;44.772;39.872;2023-01-15T01:47:51;-0.90;59.89
75683;HTU21D;64295;44.772;39.872;2023-01-15T01:50:19;-0.90;59.84
75683;HTU21D;64295;44.772;39.872;2023-01-15T01:52:52;-0.89;59.77
75683;HTU21D;64295;44.772;39.872;2023-01-15T01:55:21;-0.94;59.71
75683;HTU21D;64295;44.772;39.872;2023-01-15T01:57:49;-0.97;59.84
75683;HTU21D;64295;44.772;39.872;2023-01-15T02:00:17;-1.00;59.82
75683;HTU21D;64295;44.772;39.872;2023-01-15T02:02:45;-1.03;59.91
75683;HTU21D;64295;44.772;39.872;2023-01-15T02:05:32;-1.01;59.95
75683;HTU21D;64295;44.772;39.872;2023-01-15T02:08:00;-1.01;59.93
75683;HTU21D;64295;44.772;39.872;2023-01-15T02:10:27;-0.99;59.89
75683;HTU21D;64295;44.772;39.872;2023-01-15T02:13:49;-1.01;59.96
75683;HTU21D;64295;44.772;39.872;2023-01-15T02:15:59;-1.04;59.99
75683;HTU21D;64295;44.772;39.872;2023-01-15T02:18:39;-1.05;60.06
75683;HTU21D;64295;44.772;39.872;2023-01-15T02:24:00;-1.13;60.17
75683;HTU21D;64295;44.772;39.872;2023-01-15T02:28:56;-1.08;60.12
75683;HTU21D;64295;44.772;39.872;2023-01-15T02:31:36;-1.08;60.19
75683;HTU21D;64295;44.772;39.872;2023-01-15T02:34:17;-1.03;60.17
75683;HTU21D;64295;44.772;39.872;2023-01-15T02:36:49;-1.04;60.07
75683;HTU21D;64295;44.772;39.872;2023-01-15T02:39:24;-1.05;60.12
75683;HTU21D;64295;44.772;39.872;2023-01-15T02:41:53;-1.14;60.25
75683;HTU21D;64295;44.772;39.872;2023-01-15T02:44:24;-1.14;60.31
75683;HTU21D;64295;44.772;39.872;2023-01-15T02:46:54;-1.16;60.35
75683;HTU21D;64295;44.772;39.872;2023-01-15T02:49:23;-1.16;60.35
75683;HTU21D;64295;44.772;39.872;2023-01-15T02:52:23;-1.15;60.39
75683;HTU21D;64295;44.772;39.872;2023-01-15T02:54:59;-1.16;60.35
75683;HTU21D;64295;44.772;39.872;2023-01-15T02:57:29;-1.15;60.34
75683;HTU21D;64295;44.772;39.872;2023-01-15T03:00:00;-1.13;60.35
75683;HTU21D;64295;44.772;39.872;2023-01-15T03:02:34;-1.15;60.41
75683;HTU21D;64295;44.772;39.872;2023-01-15T03:05:07;-1.13;60.35
75683;HTU21D;64295;44.772;39.872;2023-01-15T03:07:56;-1.12;60.39
75683;HTU21D;64295;44.772;39.872;2023-01-15T03:13:02;-1.21;60.47
75683;HTU21D;64295;44.772;39.872;2023-01-15T03:16:08;-1.18;60.49
75683;HTU21D;64295;44.772;39.872;2023-01-15T03:24:19;-1.24;60.48
75683;HTU21D;64295;44.772;39.872;2023-01-15T03:26:46;-1.27;60.57
75683;HTU21D;64295;44.772;39.872;2023-01-15T03:29:12;-1.23;60.57
75683;HTU21D;64295;44.772;39.872;2023-01-15T03:31:39;-1.17;60.49
75683;HTU21D;64295;44.772;39.872;2023-01-15T03:34:05;-1.16;60.48
75683;HTU21D;64295;44.772;39.872;2023-01-15T03:36:33;-1.16;60.52
75683;HTU21D;64295;44.772;39.872;2023-01-15T03:39:01;-1.14;60.55
75683;HTU21D;64295;44.772;39.872;2023-01-15T03:45:10;-1.13;60.59
75683;HTU21D;64295;44.772;39.872;2023-01-15T03:50:18;-1.11;60.55
75683;HTU21D;64295;44.772;39.872;2023-01-15T03:53:05;-1.12;60.55
75683;HTU21D;64295;44.772;39.872;2023-01-15T03:58:45;-1.17;60.67
75683;HTU21D;64295;44.772;39.872;2023-01-15T04:01:19;-1.20;60.66
75683;HTU21D;64295;44.772;39.872;2023-01-15T04:03:48;-1.19;60.69
75683;HTU21D;64295;44.772;39.872;2023-01-15T04:06:19;-1.16;60.68
75683;HTU21D;64295;44.772;39.872;2023-01-15T04:08:46;-1.14;60.70
75683;HTU21D;64295;44.772;39.872;2023-01-15T04:11:21;-1.15;60.75
75683;HTU21D;64295;44.772;39.872;2023-01-15T04:13:50;-1.16;60.76
75683;HTU21D;64295;44.772;39.872;2023-01-15T04:16:42;-1.14;60.72
75683;HTU21D;64295;44.772;39.872;2023-01-15T04:19:09;-1.15;60.67
75683;HTU21D;64295;44.772;39.872;2023-01-15T04:21:38;-1.17;60.73
75683;HTU21D;64295;44.772;39.872;2023-01-15T04:24:04;-1.13;60.73
75683;HTU21D;64295;44.772;39.872;2023-01-15T04:26:30;-1.11;60.70
75683;HTU21D;64295;44.772;39.872;2023-01-15T04:28:56;-1.14;60.77
75683;HTU21D;64295;44.772;39.872;2023-01-15T04:31:22;-1.16;60.82
75683;HTU21D;64295;44.772;39.872;2023-01-15T04:33:48;-1.14;60.81
75683;HTU21D;64295;44.772;39.872;2023-01-15T04:36:14;-1.11;60.83
75683;HTU21D;64295;44.772;39.872;2023-01-15T04:38:39;-1.06;60.76
75683;HTU21D;64295;44.772;39.872;2023-01-15T04:41:05;-1.08;60.71
75683;HTU21D;64295;44.772;39.872;2023-01-15T04:43:50;-1.08;60.76
75683;HTU21D;64295;44.772;39.872;2023-01-15T04:46:43;-1.06;60.76
75683;HTU21D;64295;44.772;39.872;2023-01-15T04:49:11;-1.03;60.73
75683;HTU21D;64295;44.772;39.872;2023-01-15T04:51:37;-1.09;60.76
75683;HTU21D;64295;44.772;39.872;2023-01-15T04:54:08;-1.10;60.83
75683;HTU21D;64295;44.772;39.872;2023-01-15T04:56:40;-0.96;61.22
75683;HTU21D;64295;44.772;39.872;2023-01-15T04:59:06;-0.80;60.64
75683;HTU21D;64295;44.772;39.872;2023-01-15T05:01:33;-0.85;60.76
75683;HTU21D;64295;44.772;39.872;2023-01-15T05:04:00;-0.86;60.85
75683;HTU21D;64295;44.772;39.872;2023-01-15T05:06:27;-0.93;60.86
75683;HTU21D;64295;44.772;39.872;2023-01-15T05:08:53;-0.96;61.00
75683;HTU21D;64295;44.772;39.872;2023-01-15T05:11:19;-0.98;61.03
75683;HTU21D;64295;44.772;39.872;2023-01-15T05:13:45;-0.97;61.07
75683;HTU21D;64295;44.772;39.872;2023-01-15T05:16:14;-1.02;61.12
75683;HTU21D;64295;44.772;39.872;2023-01-15T05:18:41;-1.01;61.12
75683;HTU21D;64295;44.772;39.872;2023-01-15T05:21:22;-0.99;61.09
75683;HTU21D;64295;44.772;39.872;2023-01-15T05:23:53;-1.00;61.00
75683;HTU21D;64295;44.772;39.872;2023-01-15T05:26:20;-1.04;61.18
75683;HTU21D;64295;44.772;39.872;2023-01-15T05:28:46;-1.02;61.17
75683;HTU21D;64295;44.772;39.872;2023-01-15T05:31:15;-0.98;61.14
75683;HTU21D;64295;44.772;39.872;2023-01-15T05:33:41;-0.94;60.99
75683;HTU21D;64295;44.772;39.872;2023-01-15T05:36:10;-0.89;60.99
75683;HTU21D;64295;44.772;39.872;2023-01-15T05:38:39;-0.84;60.92
75683;HTU21D;64295;44.772;39.872;2023-01-15T05:41:11;-0.81;60.96
75683;HTU21D;64295;44.772;39.872;2023-01-15T05:43:58;-0.71;60.80
75683;HTU21D;64295;44.772;39.872;2023-01-15T05:46:24;-0.67;60.75
75683;HTU21D;64295;44.772;39.872;2023-01-15T05:48:50;-0.64;60.73
75683;HTU21D;64295;44.772;39.872;2023-01-15T05:51:16;-0.54;60.62
75683;HTU21D;64295;44.772;39.872;2023-01-15T05:53:42;-0.55;60.64
75683;HTU21D;64295;44.772;39.872;2023-01-15T05:56:08;-0.52;60.69
75683;HTU21D;64295;44.772;39.872;2023-01-15T05:58:34;-0.47;60.65
75683;HTU21D;64295;44.772;39.872;2023-01-15T06:01:05;-0.47;60.76
75683;HTU21D;64295;44.772;39.872;2023-01-15T06:03:32;-0.41;60.76
75683;HTU21D;64295;44.772;39.872;2023-01-15T06:05:58;-0.38;60.66
75683;HTU21D;64295;44.772;39.872;2023-01-15T06:08:24;-0.36;60.76
75683;HTU21D;64295;44.772;39.872;2023-01-15T06:10:50;-0.29;60.71
75683;HTU21D;64295;44.772;39.872;2023-01-15T06:13:16;-0.19;60.60
75683;HTU21D;64295;44.772;39.872;2023-01-15T06:15:43;-0.10;60.56
75683;HTU21D;64295;44.772;39.872;2023-01-15T06:18:10;0.05;60.41
75683;HTU21D;64295;44.772;39.872;2023-01-15T06:20:39;0.16;60.24
75683;HTU21D;64295;44.772;39.872;2023-01-15T06:23:05;0.18;60.22
75683;HTU21D;64295;44.772;39.872;2023-01-15T06:25:35;0.23;60.29
75683;HTU21D;64295;44.772;39.872;2023-01-15T06:28:06;0.20;60.34
75683;HTU21D;64295;44.772;39.872;2023-01-15T06:30:33;0.20;60.45
75683;HTU21D;64295;44.772;39.872;2023-01-15T06:32:59;0.20;60.57
75683;HTU21D;64295;44.772;39.872;2023-01-15T06:35:26;0.32;60.55
75683;HTU21D;64295;44.772;39.872;2023-01-15T06:37:52;0.45;60.36
75683;HTU21D;64295;44.772;39.872;2023-01-15T06:40:20;0.51;60.28
75683;HTU21D;64295;44.772;39.872;2023-01-15T06:42:48;0.59;60.31
75683;HTU21D;64295;44.772;39.872;2023-01-15T06:45:39;0.62;60.29
75683;HTU21D;64295;44.772;39.872;2023-01-15T06:48:25;0.63;60.28
75683;HTU21D;64295;44.772;39.872;2023-01-15T06:50:52;0.55;60.43
75683;HTU21D;64295;44.772;39.872;2023-01-15T06:53:19;0.54;60.57
75683;HTU21D;64295;44.772;39.872;2023-01-15T06:55:46;0.53;60.72
75683;HTU21D;64295;44.772;39.872;2023-01-15T06:58:12;0.59;60.73
75683;HTU21D;64295;44.772;39.872;2023-01-15T07:00:39;0.66;60.68
75683;HTU21D;64295;44.772;39.872;2023-01-15T07:03:08;0.72;60.62
75683;HTU21D;64295;44.772;39.872;2023-01-15T07:05:33;0.77;60.58
75683;HTU21D;64295;44.772;39.872;2023-01-15T07:08:02;0.82;60.57
75683;HTU21D;64295;44.772;39.872;2023-01-15T07:10:28;0.84;60.58
75683;HTU21D;64295;44.772;39.872;2023-01-15T07:12:53;0.77;60.89
75683;HTU21D;64295;44.772;39.872;2023-01-15T07:15:19;0.83;60.91
75683;HTU21D;64295;44.772;39.872;2023-01-15T07:17:45;0.94;61.85
75683;HTU21D;64295;44.772;39.872;2023-01-15T07:20:11;0.98;61.34
75683;HTU21D;64295;44.772;39.872;2023-01-15T07:22:37;1.01;61.28
75683;HTU21D;64295;44.772;39.872;2023-01-15T07:25:08;0.96;61.34
75683;HTU21D;64295;44.772;39.872;2023-01-15T07:27:38;0.89;61.68
75683;HTU21D;64295;44.772;39.872;2023-01-15T07:30:08;0.71;62.06
75683;HTU21D;64295;44.772;39.872;2023-01-15T07:32:35;0.73;62.08
75683;HTU21D;64295;44.772;39.872;2023-01-15T07:35:05;0.74;62.13
75683;HTU21D;64295;44.772;39.872;2023-01-15T07:37:32;0.77;62.13
75683;HTU21D;64295;44.772;39.872;2023-01-15T07:40:09;0.89;61.92
75683;HTU21D;64295;44.772;39.872;2023-01-15T07:42:37;1.01;61.73
75683;HTU21D;64295;44.772;39.872;2023-01-15T07:45:21;1.13;61.54
75683;HTU21D;64295;44.772;39.872;2023-01-15T07:48:09;1.26;61.44
75683;HTU21D;64295;44.772;39.872;2023-01-15T07:51:13;1.37;61.29
75683;HTU21D;64295;44.772;39.872;2023-01-15T07:53:39;1.50;61.18
75683;HTU21D;64295;44.772;39.872;2023-01-15T07:56:05;1.62;61.11
75683;HTU21D;64295;44.772;39.872;2023-01-15T07:58:30;1.79;61.06
75683;HTU21D;64295;44.772;39.872;2023-01-15T08:01:18;2.10;60.88
75683;HTU21D;64295;44.772;39.872;2023-01-15T08:03:44;2.44;60.37
75683;HTU21D;64295;44.772;39.872;2023-01-15T08:06:09;2.79;60.00
75683;HTU21D;64295;44.772;39.872;2023-01-15T08:08:35;3.09;59.71
75683;HTU21D;64295;44.772;39.872;2023-01-15T08:11:02;3.39;59.47
75683;HTU21D;64295;44.772;39.872;2023-01-15T08:13:46;3.73;59.16
75683;HTU21D;64295;44.772;39.872;2023-01-15T08:16:34;4.08;59.01
75683;HTU21D;64295;44.772;39.872;2023-01-15T08:19:05;4.39;58.79
75683;HTU21D;64295;44.772;39.872;2023-01-15T08:21:38;4.69;58.56
75683;HTU21D;64295;44.772;39.872;2023-01-15T08:24:07;4.97;58.44
75683;HTU21D;64295;44.772;39.872;2023-01-15T08:26:33;5.25;58.25
75683;HTU21D;64295;44.772;39.872;2023-01-15T08:28:59;5.51;58.07
75683;HTU21D;64295;44.772;39.872;2023-01-15T08:31:26;5.76;57.96
75683;HTU21D;64295;44.772;39.872;2023-01-15T08:33:51;5.91;57.87
75683;HTU21D;64295;44.772;39.872;2023-01-15T08:36:17;5.97;57.96
75683;HTU21D;64295;44.772;39.872;2023-01-15T08:38:43;6.04;58.19
75683;HTU21D;64295;44.772;39.872;2023-01-15T08:41:09;6.21;58.33
75683;HTU21D;64295;44.772;39.872;2023-01-15T08:43:35;6.31;58.42
75683;HTU21D;64295;44.772;39.872;2023-01-15T08:46:03;6.37;58.49
75683;HTU21D;64295;44.772;39.872;2023-01-15T08:48:32;6.38;58.47
75683;HTU21D;64295;44.772;39.872;2023-01-15T08:51:03;6.46;58.42
75683;HTU21D;64295;44.772;39.872;2023-01-15T08:53:29;6.46;58.27
75683;HTU21D;64295;44.772;39.872;2023-01-15T08:55:54;6.40;58.38
75683;HTU21D;64295;44.772;39.872;2023-01-15T08:58:21;6.57;58.41
75683;HTU21D;64295;44.772;39.872;2023-01-15T09:00:52;6.79;58.22
75683;HTU21D;64295;44.772;39.872;2023-01-15T09:03:20;7.08;58.00
75683;HTU21D;64295;44.772;39.872;2023-01-15T09:05:51;7.45;57.58
75683;HTU21D;64295;44.772;39.872;2023-01-15T09:08:20;7.75;57.28
75683;HTU21D;64295;44.772;39.872;2023-01-15T09:11:00;8.07;57.02
75683;HTU21D;64295;44.772;39.872;2023-01-15T09:13:36;8.31;56.78
75683;HTU21D;64295;44.772;39.872;2023-01-15T09:16:05;8.55;56.55
75683;HTU21D;64295;44.772;39.872;2023-01-15T09:19:02;8.71;56.52
75683;HTU21D;64295;44.772;39.872;2023-01-15T09:21:37;8.95;56.31
75683;HTU21D;64295;44.772;39.872;2023-01-15T09:24:11;9.06;56.18
75683;HTU21D;64295;44.772;39.872;2023-01-15T09:26:49;9.27;56.22
75683;HTU21D;64295;44.772;39.872;2023-01-15T09:29:20;9.46;56.10
75683;HTU21D;64295;44.772;39.872;2023-01-15T09:31:45;9.65;55.95
75683;HTU21D;64295;44.772;39.872;2023-01-15T09:34:11;9.82;55.89
75683;HTU21D;64295;44.772;39.872;2023-01-15T09:36:37;9.97;55.79
75683;HTU21D;64295;44.772;39.872;2023-01-15T09:39:03;9.96;56.02
75683;HTU21D;64295;44.772;39.872;2023-01-15T09:41:50;10.04;56.05
75683;HTU21D;64295;44.772;39.872;2023-01-15T09:50:22;10.57;55.65
75683;HTU21D;64295;44.772;39.872;2023-01-15T09:53:00;10.74;55.58
75683;HTU21D;64295;44.772;39.872;2023-01-15T09:55:47;10.94;55.65
75683;HTU21D;64295;44.772;39.872;2023-01-15T09:58:25;11.05;55.76
75683;HTU21D;64295;44.772;39.872;2023-01-15T10:00:58;11.20;55.92
75683;HTU21D;64295;44.772;39.872;2023-01-15T10:06:59;11.54;55.59
75683;HTU21D;64295;44.772;39.872;2023-01-15T10:09:34;11.84;55.18
75683;HTU21D;64295;44.772;39.872;2023-01-15T10:12:17;12.10;54.84
75683;HTU21D;64295;44.772;39.872;2023-01-15T10:15:41;12.29;54.91
75683;HTU21D;64295;44.772;39.872;2023-01-15T10:18:37;12.37;54.60
75683;HTU21D;64295;44.772;39.872;2023-01-15T10:24:12;12.59;54.21
75683;HTU21D;64295;44.772;39.872;2023-01-15T10:26:55;12.79;54.11
75683;HTU21D;64295;44.772;39.872;2023-01-15T10:29:36;12.93;53.84
75683;HTU21D;64295;44.772;39.872;2023-01-15T10:32:22;13.03;53.57
75683;HTU21D;64295;44.772;39.872;2023-01-15T10:43:56;13.11;52.82
75683;HTU21D;64295;44.772;39.872;2023-01-15T10:46:29;13.12;52.85
75683;HTU21D;64295;44.772;39.872;2023-01-15T10:49:12;13.16;52.70
75683;HTU21D;64295;44.772;39.872;2023-01-15T10:54:23;13.19;52.21
75683;HTU21D;64295;44.772;39.872;2023-01-15T10:57:11;13.26;51.93
75683;HTU21D;64295;44.772;39.872;2023-01-15T11:02:18;13.53;52.24
75683;HTU21D;64295;44.772;39.872;2023-01-15T11:04:51;13.62;51.76
75683;HTU21D;64295;44.772;39.872;2023-01-15T11:07:21;13.61;51.64
75683;HTU21D;64295;44.772;39.872;2023-01-15T11:09:48;13.61;51.58
75683;HTU21D;64295;44.772;39.872;2023-01-15T11:12:28;13.56;51.33
75683;HTU21D;64295;44.772;39.872;2023-01-15T11:15:25;13.51;51.24
75683;HTU21D;64295;44.772;39.872;2023-01-15T11:18:13;13.51;50.92
75683;HTU21D;64295;44.772;39.872;2023-01-15T11:21:00;13.58;50.81
75683;HTU21D;64295;44.772;39.872;2023-01-15T11:23:27;13.64;50.50
75683;HTU21D;64295;44.772;39.872;2023-01-15T11:25:58;13.71;50.31
75683;HTU21D;64295;44.772;39.872;2023-01-15T11:28:39;13.76;50.16
75683;HTU21D;64295;44.772;39.872;2023-01-15T11:31:11;13.77;50.17
75683;HTU21D;64295;44.772;39.872;2023-01-15T11:33:44;13.97;50.07
75683;HTU21D;64295;44.772;39.872;2023-01-15T11:36:25;14.05;50.02
75683;HTU21D;64295;44.772;39.872;2023-01-15T11:39:26;14.00;49.59
75683;HTU21D;64295;44.772;39.872;2023-01-15T11:42:14;13.85;49.52
75683;HTU21D;64295;44.772;39.872;2023-01-15T11:45:16;13.77;49.60
75683;HTU21D;64295;44.772;39.872;2023-01-15T11:48:21;13.81;49.48
75683;HTU21D;64295;44.772;39.872;2023-01-15T11:51:21;13.83;49.45
75683;HTU21D;64295;44.772;39.872;2023-01-15T11:53:50;13.79;49.71
75683;HTU21D;64295;44.772;39.872;2023-01-15T11:56:23;13.77;49.58
75683;HTU21D;64295;44.772;39.872;2023-01-15T11:59:13;13.70;49.25
75683;HTU21D;64295;44.772;39.872;2023-01-15T12:04:53;13.63;48.95
75683;HTU21D;64295;44.772;39.872;2023-01-15T12:07:22;13.65;48.89
75683;HTU21D;64295;44.772;39.872;2023-01-15T12:10:10;13.58;48.44
75683;HTU21D;64295;44.772;39.872;2023-01-15T12:15:37;13.43;48.49
75683;HTU21D;64295;44.772;39.872;2023-01-15T12:18:12;13.34;48.60
75683;HTU21D;64295;44.772;39.872;2023-01-15T12:21:36;13.32;48.50
75683;HTU21D;64295;44.772;39.872;2023-01-15T12:24:20;13.26;48.45
75683;HTU21D;64295;44.772;39.872;2023-01-15T12:30:01;13.17;48.46
75683;HTU21D;64295;44.772;39.872;2023-01-15T12:32:36;13.14;48.33
75683;HTU21D;64295;44.772;39.872;2023-01-15T12:35:12;13.06;48.40
75683;HTU21D;64295;44.772;39.872;2023-01-15T12:37:56;12.96;48.27
75683;HTU21D;64295;44.772;39.872;2023-01-15T12:43:26;12.67;48.89
75683;HTU21D;64295;44.772;39.872;2023-01-15T12:46:21;12.66;48.74
75683;HTU21D;64295;44.772;39.872;2023-01-15T12:51:49;12.57;48.65
75683;HTU21D;64295;44.772;39.872;2023-01-15T12:54:31;12.63;48.64
75683;HTU21D;64295;44.772;39.872;2023-01-15T12:57:35;12.58;48.60
75683;HTU21D;64295;44.772;39.872;2023-01-15T13:00:26;12.44;48.66
75683;HTU21D;64295;44.772;39.872;2023-01-15T13:03:24;12.42;48.71
75683;HTU21D;64295;44.772;39.872;2023-01-15T13:05:58;12.35;48.73
75683;HTU21D;64295;44.772;39.872;2023-01-15T13:11:41;12.16;48.95
75683;HTU21D;64295;44.772;39.872;2023-01-15T13:14:14;12.05;48.81
75683;HTU21D;64295;44.772;39.872;2023-01-15T13:17:20;11.97;48.86
75683;HTU21D;64295;44.772;39.872;2023-01-15T13:20:34;11.91;49.64
75683;HTU21D;64295;44.772;39.872;2023-01-15T13:26:06;11.57;49.37
75683;HTU21D;64295;44.772;39.872;2023-01-15T13:31:56;11.14;49.75
75683;HTU21D;64295;44.772;39.872;2023-01-15T13:34:30;10.92;50.00
75683;HTU21D;64295;44.772;39.872;2023-01-15T13:37:24;10.77;50.07
75683;HTU21D;64295;44.772;39.872;2023-01-15T13:40:08;10.62;50.23
75683;HTU21D;64295;44.772;39.872;2023-01-15T13:42:38;10.57;50.26
75683;HTU21D;64295;44.772;39.872;2023-01-15T13:45:23;10.54;50.18
75683;HTU21D;64295;44.772;39.872;2023-01-15T13:48:19;10.63;50.05
75683;HTU21D;64295;44.772;39.872;2023-01-15T13:50:58;10.60;49.89
75683;HTU21D;64295;44.772;39.872;2023-01-15T13:53:39;10.53;49.92
75683;HTU21D;64295;44.772;39.872;2023-01-15T13:56:11;10.48;50.06
75683;HTU21D;64295;44.772;39.872;2023-01-15T13:58:59;10.43;50.40
75683;HTU21D;64295;44.772;39.872;2023-01-15T14:06:40;10.36;50.20
75683;HTU21D;64295;44.772;39.872;2023-01-15T14:29:01;9.99;51.42
75683;HTU21D;64295;44.772;39.872;2023-01-15T14:34:27;9.64;51.60
75683;HTU21D;64295;44.772;39.872;2023-01-15T14:36:57;9.51;51.68
75683;HTU21D;64295;44.772;39.872;2023-01-15T14:42:05;9.22;51.76
75683;HTU21D;64295;44.772;39.872;2023-01-15T14:45:07;8.95;52.00
75683;HTU21D;64295;44.772;39.872;2023-01-15T14:47:50;8.68;52.33
75683;HTU21D;64295;44.772;39.872;2023-01-15T14:50:41;8.49;52.58
75683;HTU21D;64295;44.772;39.872;2023-01-15T14:53:30;8.41;52.62
75683;HTU21D;64295;44.772;39.872;2023-01-15T14:58:58;8.12;52.88
75683;HTU21D;64295;44.772;39.872;2023-01-15T15:01:43;8.02;53.24
75683;HTU21D;64295;44.772;39.872;2023-01-15T15:06:57;8.57;53.33
75683;HTU21D;64295;44.772;39.872;2023-01-15T15:09:42;8.63;53.02
75683;HTU21D;64295;44.772;39.872;2023-01-15T15:12:19;8.47;53.03
75683;HTU21D;64295;44.772;39.872;2023-01-15T15:14:52;8.28;53.31
75683;HTU21D;64295;44.772;39.872;2023-01-15T15:23:19;7.85;53.86
75683;HTU21D;64295;44.772;39.872;2023-01-15T15:25:55;8.18;54.29
75683;HTU21D;64295;44.772;39.872;2023-01-15T15:28:21;8.36;53.78
75683;HTU21D;64295;44.772;39.872;2023-01-15T15:30:47;8.32;53.72
75683;HTU21D;64295;44.772;39.872;2023-01-15T15:33:18;8.19;53.78
75683;HTU21D;64295;44.772;39.872;2023-01-15T15:35:56;8.08;53.90
75683;HTU21D;64295;44.772;39.872;2023-01-15T15:38:23;7.99;53.94
75683;HTU21D;64295;44.772;39.872;2023-01-15T15:40:53;7.86;54.04
75683;HTU21D;64295;44.772;39.872;2023-01-15T15:43:43;7.86;54.22
75683;HTU21D;64295;44.772;39.872;2023-01-15T15:46:31;7.85;54.06
75683;HTU21D;64295;44.772;39.872;2023-01-15T15:49:19;7.77;54.13
75683;HTU21D;64295;44.772;39.872;2023-01-15T15:51:53;7.76;54.05
75683;HTU21D;64295;44.772;39.872;2023-01-15T15:54:32;7.76;54.32
75683;HTU21D;64295;44.772;39.872;2023-01-15T15:57:01;7.77;54.23
75683;HTU21D;64295;44.772;39.872;2023-01-15T15:59:52;7.71;54.23
75683;HTU21D;64295;44.772;39.872;2023-01-15T16:04:57;7.52;54.36
75683;HTU21D;64295;44.772;39.872;2023-01-15T16:07:32;7.42;54.46
75683;HTU21D;64295;44.772;39.872;2023-01-15T16:12:44;7.86;54.29
75683;HTU21D;64295;44.772;39.872;2023-01-15T16:15:22;7.63;54.39
75683;HTU21D;64295;44.772;39.872;2023-01-15T16:17:53;7.45;54.64
75683;HTU21D;64295;44.772;39.872;2023-01-15T16:20:28;7.41;54.69
75683;HTU21D;64295;44.772;39.872;2023-01-15T16:22:56;7.33;54.65
75683;HTU21D;64295;44.772;39.872;2023-01-15T16:25:26;7.18;54.75
75683;HTU21D;64295;44.772;39.872;2023-01-15T16:27:53;6.99;55.00
75683;HTU21D;64295;44.772;39.872;2023-01-15T16:30:20;6.90;55.15
75683;HTU21D;64295;44.772;39.872;2023-01-15T16:32:47;6.82;55.08
75683;HTU21D;64295;44.772;39.872;2023-01-15T16:35:22;6.67;55.23
75683;HTU21D;64295;44.772;39.872;2023-01-15T16:37:54;6.59;55.31
75683;HTU21D;64295;44.772;39.872;2023-01-15T16:42:46;6.61;55.16
75683;HTU21D;64295;44.772;39.872;2023-01-15T16:45:22;6.48;55.20
75683;HTU21D;64295;44.772;39.872;2023-01-15T16:50:50;6.28;55.43
75683;HTU21D;64295;44.772;39.872;2023-01-15T16:56:00;6.21;55.45
75683;HTU21D;64295;44.772;39.872;2023-01-15T16:58:52;6.10;55.64
75683;HTU21D;64295;44.772;39.872;2023-01-15T17:01:37;5.99;55.71
75683;HTU21D;64295;44.772;39.872;2023-01-15T17:04:35;5.94;55.76
75683;HTU21D;64295;44.772;39.872;2023-01-15T17:07:14;5.92;55.73
75683;HTU21D;64295;44.772;39.872;2023-01-15T17:09:55;5.89;55.74
75683;HTU21D;64295;44.772;39.872;2023-01-15T17:12:38;5.78;55.89
75683;HTU21D;64295;44.772;39.872;2023-01-15T17:15:36;5.68;56.03
75683;HTU21D;64295;44.772;39.872;2023-01-15T17:18:23;5.71;56.03
75683;HTU21D;64295;44.772;39.872;2023-01-15T17:20:50;5.86;55.80
75683;HTU21D;64295;44.772;39.872;2023-01-15T17:23:18;5.85;55.74
75683;HTU21D;64295;44.772;39.872;2023-01-15T17:25:47;5.78;55.84
75683;HTU21D;64295;44.772;39.872;2023-01-15T17:28:13;5.70;55.95
75683;HTU21D;64295;44.772;39.872;2023-01-15T17:30:39;5.62;56.07
75683;HTU21D;64295;44.772;39.872;2023-01-15T17:33:06;5.61;56.25
75683;HTU21D;64295;44.772;39.872;2023-01-15T17:35:35;6.00;56.64
75683;HTU21D;64295;44.772;39.872;2023-01-15T17:38:03;6.10;56.07
75683;HTU21D;64295;44.772;39.872;2023-01-15T17:40:29;5.87;56.36
75683;HTU21D;64295;44.772;39.872;2023-01-15T17:42:59;5.77;56.64
75683;HTU21D;64295;44.772;39.872;2023-01-15T17:45:27;5.75;56.78
75683;HTU21D;64295;44.772;39.872;2023-01-15T17:47:53;5.64;56.84
75683;HTU21D;64295;44.772;39.872;2023-01-15T17:50:20;5.53;56.90
75683;HTU21D;64295;44.772;39.872;2023-01-15T17:52:50;5.37;57.10
75683;HTU21D;64295;44.772;39.872;2023-01-15T17:55:23;5.41;57.58
75683;HTU21D;64295;44.772;39.872;2023-01-15T17:58:13;5.45;57.13